sensor_id;sensor_type;location;lat;lon;timestamp;temperature;humidity
59703;DHT22;45570;48.782;8.332;2023-03-01T00:01:10;-2.00;99.90
59703;DHT22;45570;48.782;8.332;2023-03-01T00:03:38;-2.00;99.90
59703;DHT22;45570;48.782;8.332;2023-03-01T00:06:07;-2.20;99.90
59703;DHT22;45570;48.782;8.332;2023-03-01T00:08:36;-2.10;99.90
59703;DHT22;45570;48.782;8.332;2023-03-01T00:11:06;-2.00;99.90
59703;DHT22;45570;48.782;8.332;2023-03-01T00:13:35;-2.10;99.90
59703;DHT22;45570;48.782;8.332;2023-03-01T00:16:10;-2.20;99.90
59703;DHT22;45570;48.782;8.332;2023-03-01T00:18:40;-2.20;99.90
59703;DHT22;45570;48.782;8.332;2023-03-01T00:21:08;-2.30;99.90
59703;DHT22;45570;48.782;8.332;2023-03-01T00:23:38;-2.20;99.90
59703;DHT22;45570;48.782;8.332;2023-03-01T00:26:08;-2.20;99.90
59703;DHT22;45570;48.782;8.332;2023-03-01T00:28:39;-2.30;99.90
59703;DHT22;45570;48.782;8.332;2023-03-01T00:31:11;-2.20;99.90
59703;DHT22;45570;48.782;8.332;2023-03-01T00:33:40;-2.30;99.90
59703;DHT22;45570;48.782;8.332;2023-03-01T00:36:10;-2.40;99.90
59703;DHT22;45570;48.782;8.332;2023-03-01T00:38:41;-2.30;99.90
59703;DHT22;45570;48.782;8.332;2023-03-01T00:41:12;-2.40;99.90
59703;DHT22;45570;48.782;8.332;2023-03-01T00:43:41;-2.40;99.90
59703;DHT22;45570;48.782;8.332;2023-03-01T00:46:13;-2.20;99.90
59703;DHT22;45570;48.782;8.332;2023-03-01T00:48:42;-2.30;99.90
59703;DHT22;45570;48.782;8.332;2023-03-01T00:51:12;-2.40;99.90
59703;DHT22;45570;48.782;8.332;2023-03-01T00:53:42;-2.60;99.90
59703;DHT22;45570;48.782;8.332;2023-03-01T00:56:13;-2.60;99.90
59703;DHT22;45570;48.782;8.332;2023-03-01T00:58:43;-2.60;99.90
59703;DHT22;45570;48.782;8.332;2023-03-01T01:01:15;-2.70;99.90
59703;DHT22;45570;48.782;8.332;2023-03-01T01:03:47;-2.70;99.90
59703;DHT22;45570;48.782;8.332;2023-03-01T01:06:18;-2.70;99.90
59703;DHT22;45570;48.782;8.332;2023-03-01T01:08:47;-2.80;99.90
59703;DHT22;45570;48.782;8.332;2023-03-01T01:11:16;-2.80;99.90
59703;DHT22;45570;48.782;8.332;2023-03-01T01:13:45;-2.90;99.90
59703;DHT22;45570;48.782;8.332;2023-03-01T01:16:17;-2.90;99.90
59703;DHT22;45570;48.782;8.332;2023-03-01T01:18:46;-2.90;99.90
59703;DHT22;45570;48.782;8.332;2023-03-01T01:21:17;-3.00;99.90
59703;DHT22;45570;48.782;8.332;2023-03-01T01:23:46;-3.00;99.90
59703;DHT22;45570;48.782;8.332;2023-03-01T01:26:17;-3.00;99.90
59703;DHT22;45570;48.782;8.332;2023-03-01T01:28:45;-3.00;99.90
59703;DHT22;45570;48.782;8.332;2023-03-01T01:31:16;-3.00;99.90
59703;DHT22;45570;48.782;8.332;2023-03-01T01:33:46;-3.10;99.90
59703;DHT22;45570;48.782;8.332;2023-03-01T01:36:14;-2.90;99.90
59703;DHT22;45570;48.782;8.332;2023-03-01T01:38:43;-2.70;99.90
59703;DHT22;45570;48.782;8.332;2023-03-01T01:41:12;-2.90;99.90
59703;DHT22;45570;48.782;8.332;2023-03-01T01:43:43;-2.70;99.90
59703;DHT22;45570;48.782;8.332;2023-03-01T01:46:21;-2.70;99.90
59703;DHT22;45570;48.782;8.332;2023-03-01T01:48:57;-2.90;99.90
59703;DHT22;45570;48.782;8.332;2023-03-01T01:51:30;-2.80;99.90
59703;DHT22;45570;48.782;8.332;2023-03-01T01:54:10;-2.90;99.90
59703;DHT22;45570;48.782;8.332;2023-03-01T01:56:40;-3.10;99.90
59703;DHT22;45570;48.782;8.332;2023-03-01T01:59:11;-3.10;99.90
59703;DHT22;45570;48.782;8.332;2023-03-01T02:01:41;-3.20;99.90
59703;DHT22;45570;48.782;8.332;2023-03-01T02:04:10;-2.90;99.90
59703;DHT22;45570;48.782;8.332;2023-03-01T02:06:42;-2.90;99.90
59703;DHT22;45570;48.782;8.332;2023-03-01T02:09:14;-3.00;99.90
59703;DHT22;45570;48.782;8.332;2023-03-01T02:11:44;-3.10;99.90
59703;DHT22;45570;48.782;8.332;2023-03-01T02:14:14;-3.20;99.90
59703;DHT22;45570;48.782;8.332;2023-03-01T02:16:44;-3.30;99.90
59703;DHT22;45570;48.782;8.332;2023-03-01T02:19:18;-3.30;99.90
59703;DHT22;45570;48.782;8.332;2023-03-01T02:21:56;-3.10;99.90
59703;DHT22;45570;48.782;8.332;2023-03-01T02:24:32;-3.10;99.90
59703;DHT22;45570;48.782;8.332;2023-03-01T02:27:04;-3.20;99.90
59703;DHT22;45570;48.782;8.332;2023-03-01T02:29:34;-3.20;99.90
59703;DHT22;45570;48.782;8.332;2023-03-01T02:32:04;-3.00;99.90
59703;DHT22;45570;48.782;8.332;2023-03-01T02:34:32;-2.90;99.90
59703;DHT22;45570;48.782;8.332;2023-03-01T02:37:03;-3.00;99.90
59703;DHT22;45570;48.782;8.332;2023-03-01T02:39:36;-3.10;99.90
59703;DHT22;45570;48.782;8.332;2023-03-01T02:42:11;-3.10;99.90
59703;DHT22;45570;48.782;8.332;2023-03-01T02:44:43;-3.30;99.90
59703;DHT22;45570;48.782;8.332;2023-03-01T02:47:11;-3.30;99.90
59703;DHT22;45570;48.782;8.332;2023-03-01T02:49:40;-3.40;99.90
59703;DHT22;45570;48.782;8.332;2023-03-01T02:52:24;-3.50;99.90
59703;DHT22;45570;48.782;8.332;2023-03-01T02:54:58;-3.30;99.90
59703;DHT22;45570;48.782;8.332;2023-03-01T02:57:29;-3.40;99.90
59703;DHT22;45570;48.782;8.332;2023-03-01T03:00:03;-3.50;99.90
59703;DHT22;45570;48.782;8.332;2023-03-01T03:02:35;-3.60;99.90
59703;DHT22;45570;48.782;8.332;2023-03-01T03:05:16;-3.50;99.90
59703;DHT22;45570;48.782;8.332;2023-03-01T03:07:47;-3.50;99.90
59703;DHT22;45570;48.782;8.332;2023-03-01T03:10:18;-3.50;99.90
59703;DHT22;45570;48.782;8.332;2023-03-01T03:12:49;-3.60;99.90
59703;DHT22;45570;48.782;8.332;2023-03-01T03:15:21;-3.70;99.90
59703;DHT22;45570;48.782;8.332;2023-03-01T03:17:50;-3.60;99.90
59703;DHT22;45570;48.782;8.332;2023-03-01T03:20:21;-3.30;99.90
59703;DHT22;45570;48.782;8.332;2023-03-01T03:22:52;-3.30;99.90
59703;DHT22;45570;48.782;8.332;2023-03-01T03:25:22;-3.20;99.90
59703;DHT22;45570;48.782;8.332;2023-03-01T03:27:52;-3.40;99.90
59703;DHT22;45570;48.782;8.332;2023-03-01T03:30:27;-3.50;99.90
59703;DHT22;45570;48.782;8.332;2023-03-01T03:32:57;-3.50;99.90
59703;DHT22;45570;48.782;8.332;2023-03-01T03:35:28;-3.60;99.90
59703;DHT22;45570;48.782;8.332;2023-03-01T03:37:58;-3.60;99.90
59703;DHT22;45570;48.782;8.332;2023-03-01T03:40:31;-3.60;99.90
59703;DHT22;45570;48.782;8.332;2023-03-01T03:43:00;-3.80;99.90
59703;DHT22;45570;48.782;8.332;2023-03-01T03:45:30;-3.60;99.90
59703;DHT22;45570;48.782;8.332;2023-03-01T03:48:01;-3.50;99.90
59703;DHT22;45570;48.782;8.332;2023-03-01T03:50:29;-3.50;99.90
59703;DHT22;45570;48.782;8.332;2023-03-01T03:52:59;-3.60;99.90
59703;DHT22;45570;48.782;8.332;2023-03-01T03:55:28;-3.70;99.90
59703;DHT22;45570;48.782;8.332;2023-03-01T03:57:58;-3.70;99.90
59703;DHT22;45570;48.782;8.332;2023-03-01T04:00:30;-3.50;99.90
59703;DHT22;45570;48.782;8.332;2023-03-01T04:02:59;-3.40;99.90
59703;DHT22;45570;48.782;8.332;2023-03-01T04:05:28;-3.60;99.90
59703;DHT22;45570;48.782;8.332;2023-03-01T04:07:57;-3.70;99.90
59703;DHT22;45570;48.782;8.332;2023-03-01T04:10:37;-3.80;99.90
59703;DHT22;45570;48.782;8.332;2023-03-01T04:13:06;-3.90;99.90
59703;DHT22;45570;48.782;8.332;2023-03-01T04:15:37;-3.80;99.90
59703;DHT22;45570;48.782;8.332;2023-03-01T04:18:06;-3.60;99.90
59703;DHT22;45570;48.782;8.332;2023-03-01T04:20:35;-3.60;99.90
59703;DHT22;45570;48.782;8.332;2023-03-01T04:23:05;-3.60;99.90
59703;DHT22;45570;48.782;8.332;2023-03-01T04:25:41;-3.60;99.90
59703;DHT22;45570;48.782;8.332;2023-03-01T04:28:10;-3.70;99.90
59703;DHT22;45570;48.782;8.332;2023-03-01T04:30:40;-3.70;99.90
59703;DHT22;45570;48.782;8.332;2023-03-01T04:33:09;-3.60;99.90
59703;DHT22;45570;48.782;8.332;2023-03-01T04:35:38;-3.40;99.90
59703;DHT22;45570;48.782;8.332;2023-03-01T04:38:08;-3.50;99.90
59703;DHT22;45570;48.782;8.332;2023-03-01T04:40:37;-3.60;99.90
59703;DHT22;45570;48.782;8.332;2023-03-01T04:43:06;-3.50;99.90
59703;DHT22;45570;48.782;8.332;2023-03-01T04:45:34;-3.60;99.90
59703;DHT22;45570;48.782;8.332;2023-03-01T04:48:05;-3.60;99.90
59703;DHT22;45570;48.782;8.332;2023-03-01T04:50:33;-3.60;99.90
59703;DHT22;45570;48.782;8.332;2023-03-01T04:53:03;-3.60;99.90
59703;DHT22;45570;48.782;8.332;2023-03-01T04:55:31;-3.60;99.90
59703;DHT22;45570;48.782;8.332;2023-03-01T04:58:00;-3.60;99.90
59703;DHT22;45570;48.782;8.332;2023-03-01T05:00:28;-3.70;99.90
59703;DHT22;45570;48.782;8.332;2023-03-01T05:02:59;-3.40;99.90
59703;DHT22;45570;48.782;8.332;2023-03-01T05:05:32;-3.40;99.90
59703;DHT22;45570;48.782;8.332;2023-03-01T05:08:02;-3.50;99.90
59703;DHT22;45570;48.782;8.332;2023-03-01T05:10:32;-3.30;99.90
59703;DHT22;45570;48.782;8.332;2023-03-01T05:13:03;-3.10;99.90
59703;DHT22;45570;48.782;8.332;2023-03-01T05:15:32;-3.10;99.90
59703;DHT22;45570;48.782;8.332;2023-03-01T05:18:00;-3.10;99.90
59703;DHT22;45570;48.782;8.332;2023-03-01T05:20:30;-3.10;99.90
59703;DHT22;45570;48.782;8.332;2023-03-01T05:23:00;-3.10;99.90
59703;DHT22;45570;48.782;8.332;2023-03-01T05:25:33;-3.00;99.90
59703;DHT22;45570;48.782;8.332;2023-03-01T05:28:02;-3.10;99.90
59703;DHT22;45570;48.782;8.332;2023-03-01T05:30:32;-3.20;99.90
59703;DHT22;45570;48.782;8.332;2023-03-01T05:33:01;-3.20;99.90
59703;DHT22;45570;48.782;8.332;2023-03-01T05:35:32;-3.20;99.90
59703;DHT22;45570;48.782;8.332;2023-03-01T05:38:01;-3.20;99.90
59703;DHT22;45570;48.782;8.332;2023-03-01T05:40:29;-3.10;99.90
59703;DHT22;45570;48.782;8.332;2023-03-01T05:42:58;-3.00;99.90
59703;DHT22;45570;48.782;8.332;2023-03-01T05:45:27;-3.00;99.90
59703;DHT22;45570;48.782;8.332;2023-03-01T05:47:56;-2.90;99.90
59703;DHT22;45570;48.782;8.332;2023-03-01T05:50:26;-2.80;99.90
59703;DHT22;45570;48.782;8.332;2023-03-01T05:52:59;-2.80;99.90
59703;DHT22;45570;48.782;8.332;2023-03-01T05:55:29;-2.60;99.90
59703;DHT22;45570;48.782;8.332;2023-03-01T05:57:59;-2.40;99.90
59703;DHT22;45570;48.782;8.332;2023-03-01T06:00:28;-2.40;99.90
59703;DHT22;45570;48.782;8.332;2023-03-01T06:02:58;-2.60;99.90
59703;DHT22;45570;48.782;8.332;2023-03-01T06:05:27;-2.60;99.90
59703;DHT22;45570;48.782;8.332;2023-03-01T06:08:00;-2.60;99.90
59703;DHT22;45570;48.782;8.332;2023-03-01T06:10:29;-2.60;99.90
59703;DHT22;45570;48.782;8.332;2023-03-01T06:12:57;-2.40;99.90
59703;DHT22;45570;48.782;8.332;2023-03-01T06:15:26;-2.40;99.90
59703;DHT22;45570;48.782;8.332;2023-03-01T06:17:55;-2.40;99.90
59703;DHT22;45570;48.782;8.332;2023-03-01T06:20:28;-2.30;99.90
59703;DHT22;45570;48.782;8.332;2023-03-01T06:22:58;-2.20;99.90
59703;DHT22;45570;48.782;8.332;2023-03-01T06:25:27;-2.00;99.90
59703;DHT22;45570;48.782;8.332;2023-03-01T06:27:56;-2.10;99.90
59703;DHT22;45570;48.782;8.332;2023-03-01T06:30:25;-2.30;99.90
59703;DHT22;45570;48.782;8.332;2023-03-01T06:32:54;-2.20;99.90
59703;DHT22;45570;48.782;8.332;2023-03-01T06:35:29;-2.10;99.90
59703;DHT22;45570;48.782;8.332;2023-03-01T06:38:01;-2.20;99.90
59703;DHT22;45570;48.782;8.332;2023-03-01T06:40:31;-2.10;99.90
59703;DHT22;45570;48.782;8.332;2023-03-01T06:43:02;-2.10;99.90
59703;DHT22;45570;48.782;8.332;2023-03-01T06:45:30;-2.00;99.90
59703;DHT22;45570;48.782;8.332;2023-03-01T06:48:03;-1.80;99.90
59703;DHT22;45570;48.782;8.332;2023-03-01T06:50:33;-1.90;99.90
59703;DHT22;45570;48.782;8.332;2023-03-01T06:53:03;-1.80;99.90
59703;DHT22;45570;48.782;8.332;2023-03-01T06:55:32;-1.90;99.90
59703;DHT22;45570;48.782;8.332;2023-03-01T06:58:02;-1.80;99.90
59703;DHT22;45570;48.782;8.332;2023-03-01T07:00:31;-1.60;99.90
59703;DHT22;45570;48.782;8.332;2023-03-01T07:03:01;-1.60;99.90
59703;DHT22;45570;48.782;8.332;2023-03-01T07:05:30;-1.70;99.90
59703;DHT22;45570;48.782;8.332;2023-03-01T07:07:58;-1.60;99.90
59703;DHT22;45570;48.782;8.332;2023-03-01T07:10:28;-1.60;99.90
59703;DHT22;45570;48.782;8.332;2023-03-01T07:12:58;-1.50;99.90
59703;DHT22;45570;48.782;8.332;2023-03-01T07:15:27;-1.50;99.90
59703;DHT22;45570;48.782;8.332;2023-03-01T07:17:56;-1.20;99.90
59703;DHT22;45570;48.782;8.332;2023-03-01T07:20:25;-1.10;99.90
59703;DHT22;45570;48.782;8.332;2023-03-01T07:22:53;-0.80;99.90
59703;DHT22;45570;48.782;8.332;2023-03-01T07:25:22;-0.60;99.90
59703;DHT22;45570;48.782;8.332;2023-03-01T07:27:52;-0.50;99.90
59703;DHT22;45570;48.782;8.332;2023-03-01T07:30:21;-0.60;99.90
59703;DHT22;45570;48.782;8.332;2023-03-01T07:32:53;-0.70;99.90
59703;DHT22;45570;48.782;8.332;2023-03-01T07:35:22;-0.60;99.90
59703;DHT22;45570;48.782;8.332;2023-03-01T07:37:52;-0.60;99.90
59703;DHT22;45570;48.782;8.332;2023-03-01T07:40:20;-0.60;99.90
59703;DHT22;45570;48.782;8.332;2023-03-01T07:42:49;-0.40;99.90
59703;DHT22;45570;48.782;8.332;2023-03-01T07:45:18;0.00;99.90
59703;DHT22;45570;48.782;8.332;2023-03-01T07:47:47;0.60;99.90
59703;DHT22;45570;48.782;8.332;2023-03-01T07:50:16;1.10;99.90
59703;DHT22;45570;48.782;8.332;2023-03-01T07:52:45;1.60;99.90
59703;DHT22;45570;48.782;8.332;2023-03-01T07:55:14;2.00;99.90
59703;DHT22;45570;48.782;8.332;2023-03-01T07:57:42;2.20;99.90
59703;DHT22;45570;48.782;8.332;2023-03-01T08:00:13;2.60;99.90
59703;DHT22;45570;48.782;8.332;2023-03-01T08:02:43;3.00;99.90
59703;DHT22;45570;48.782;8.332;2023-03-01T08:05:12;3.20;99.90
59703;DHT22;45570;48.782;8.332;2023-03-01T08:07:41;3.50;99.90
59703;DHT22;45570;48.782;8.332;2023-03-01T08:10:10;3.60;99.90
59703;DHT22;45570;48.782;8.332;2023-03-01T08:12:39;3.60;99.90
59703;DHT22;45570;48.782;8.332;2023-03-01T08:15:08;3.60;99.90
59703;DHT22;45570;48.782;8.332;2023-03-01T08:17:37;3.50;99.90
59703;DHT22;45570;48.782;8.332;2023-03-01T08:20:09;3.60;99.90
59703;DHT22;45570;48.782;8.332;2023-03-01T08:22:39;3.80;99.90
59703;DHT22;45570;48.782;8.332;2023-03-01T08:25:08;3.80;99.90
59703;DHT22;45570;48.782;8.332;2023-03-01T08:27:37;3.80;99.90
59703;DHT22;45570;48.782;8.332;2023-03-01T08:30:06;3.90;99.90
59703;DHT22;45570;48.782;8.332;2023-03-01T08:32:36;3.80;99.90
59703;DHT22;45570;48.782;8.332;2023-03-01T08:35:07;3.80;99.90
59703;DHT22;45570;48.782;8.332;2023-03-01T08:37:36;4.10;99.90
59703;DHT22;45570;48.782;8.332;2023-03-01T08:40:06;4.20;99.90
59703;DHT22;45570;48.782;8.332;2023-03-01T08:42:37;4.30;99.90
59703;DHT22;45570;48.782;8.332;2023-03-01T08:45:06;4.40;99.90
59703;DHT22;45570;48.782;8.332;2023-03-01T08:47:35;4.70;99.90
59703;DHT22;45570;48.782;8.332;2023-03-01T08:50:04;4.90;99.90
59703;DHT22;45570;48.782;8.332;2023-03-01T08:52:34;5.20;99.90
59703;DHT22;45570;48.782;8.332;2023-03-01T08:55:03;5.40;99.90
59703;DHT22;45570;48.782;8.332;2023-03-01T08:57:32;5.60;99.90
59703;DHT22;45570;48.782;8.332;2023-03-01T09:00:00;5.60;99.90
59703;DHT22;45570;48.782;8.332;2023-03-01T09:02:30;5.50;99.90
59703;DHT22;45570;48.782;8.332;2023-03-01T09:04:58;5.40;99.90
59703;DHT22;45570;48.782;8.332;2023-03-01T09:07:27;5.30;99.90
59703;DHT22;45570;48.782;8.332;2023-03-01T09:09:57;5.50;99.90
59703;DHT22;45570;48.782;8.332;2023-03-01T09:12:26;5.80;99.90
59703;DHT22;45570;48.782;8.332;2023-03-01T09:14:54;6.00;99.90
59703;DHT22;45570;48.782;8.332;2023-03-01T09:17:23;6.20;99.90
59703;DHT22;45570;48.782;8.332;2023-03-01T09:19:51;6.40;99.90
59703;DHT22;45570;48.782;8.332;2023-03-01T09:22:20;6.60;99.90
59703;DHT22;45570;48.782;8.332;2023-03-01T09:24:48;6.70;99.90
59703;DHT22;45570;48.782;8.332;2023-03-01T09:27:18;6.80;99.90
59703;DHT22;45570;48.782;8.332;2023-03-01T09:29:47;7.00;99.90
59703;DHT22;45570;48.782;8.332;2023-03-01T09:32:16;7.20;99.90
59703;DHT22;45570;48.782;8.332;2023-03-01T09:34:45;7.30;99.90
59703;DHT22;45570;48.782;8.332;2023-03-01T09:37:31;7.10;99.90
59703;DHT22;45570;48.782;8.332;2023-03-01T09:40:00;7.80;99.90
59703;DHT22;45570;48.782;8.332;2023-03-01T09:42:32;8.20;99.90
59703;DHT22;45570;48.782;8.332;2023-03-01T09:45:04;8.30;99.90
59703;DHT22;45570;48.782;8.332;2023-03-01T09:47:35;9.00;99.90
59703;DHT22;45570;48.782;8.332;2023-03-01T09:50:08;8.90;99.90
59703;DHT22;45570;48.782;8.332;2023-03-01T09:52:41;8.70;99.90
59703;DHT22;45570;48.782;8.332;2023-03-01T09:55:12;8.70;99.90
59703;DHT22;45570;48.782;8.332;2023-03-01T09:57:47;8.90;99.90
59703;DHT22;45570;48.782;8.332;2023-03-01T10:00:27;8.80;99.90
59703;DHT22;45570;48.782;8.332;2023-03-01T10:03:01;8.90;99.90
59703;DHT22;45570;48.782;8.332;2023-03-01T10:05:50;9.60;99.90
59703;DHT22;45570;48.782;8.332;2023-03-01T10:08:40;9.60;99.90
59703;DHT22;45570;48.782;8.332;2023-03-01T10:11:21;10.10;99.90
59703;DHT22;45570;48.782;8.332;2023-03-01T10:14:05;10.10;99.90
59703;DHT22;45570;48.782;8.332;2023-03-01T10:16:41;10.20;99.90
59703;DHT22;45570;48.782;8.332;2023-03-01T10:19:15;10.20;99.90
59703;DHT22;45570;48.782;8.332;2023-03-01T10:21:45;10.30;99.90
59703;DHT22;45570;48.782;8.332;2023-03-01T10:24:16;10.70;99.90
59703;DHT22;45570;48.782;8.332;2023-03-01T10:26:54;10.30;99.90
59703;DHT22;45570;48.782;8.332;2023-03-01T10:29:27;10.10;99.90
59703;DHT22;45570;48.782;8.332;2023-03-01T10:31:58;9.90;99.90
59703;DHT22;45570;48.782;8.332;2023-03-01T10:34:29;9.90;99.90
59703;DHT22;45570;48.782;8.332;2023-03-01T10:37:04;9.90;99.90
59703;DHT22;45570;48.782;8.332;2023-03-01T10:39:36;10.00;99.90
59703;DHT22;45570;48.782;8.332;2023-03-01T10:42:16;9.90;99.90
59703;DHT22;45570;48.782;8.332;2023-03-01T10:44:48;10.00;99.90
59703;DHT22;45570;48.782;8.332;2023-03-01T10:47:20;9.90;99.90
59703;DHT22;45570;48.782;8.332;2023-03-01T10:49:54;9.70;99.90
59703;DHT22;45570;48.782;8.332;2023-03-01T10:52:25;9.90;99.90
59703;DHT22;45570;48.782;8.332;2023-03-01T10:54:56;9.60;99.90
59703;DHT22;45570;48.782;8.332;2023-03-01T10:57:36;9.50;99.90
59703;DHT22;45570;48.782;8.332;2023-03-01T11:00:22;9.20;99.90
59703;DHT22;45570;48.782;8.332;2023-03-01T11:03:03;9.30;99.90
59703;DHT22;45570;48.782;8.332;2023-03-01T11:05:32;9.70;99.90
59703;DHT22;45570;48.782;8.332;2023-03-01T11:08:02;9.30;99.90
59703;DHT22;45570;48.782;8.332;2023-03-01T11:10:33;9.30;99.90
59703;DHT22;45570;48.782;8.332;2023-03-01T11:13:07;9.80;99.90
59703;DHT22;45570;48.782;8.332;2023-03-01T11:15:38;10.00;99.90
59703;DHT22;45570;48.782;8.332;2023-03-01T11:18:19;10.20;99.90
59703;DHT22;45570;48.782;8.332;2023-03-01T11:20:58;10.20;99.90
59703;DHT22;45570;48.782;8.332;2023-03-01T11:23:29;10.40;99.90
59703;DHT22;45570;48.782;8.332;2023-03-01T11:26:01;11.10;99.90
59703;DHT22;45570;48.782;8.332;2023-03-01T11:28:31;10.90;99.90
59703;DHT22;45570;48.782;8.332;2023-03-01T11:31:05;10.70;99.90
59703;DHT22;45570;48.782;8.332;2023-03-01T11:33:41;11.20;99.90
59703;DHT22;45570;48.782;8.332;2023-03-01T11:36:26;10.90;99.90
59703;DHT22;45570;48.782;8.332;2023-03-01T11:38:56;11.00;99.90
59703;DHT22;45570;48.782;8.332;2023-03-01T11:41:27;10.50;99.90
59703;DHT22;45570;48.782;8.332;2023-03-01T11:44:00;11.10;99.90
59703;DHT22;45570;48.782;8.332;2023-03-01T11:46:45;11.70;99.90
59703;DHT22;45570;48.782;8.332;2023-03-01T11:49:40;11.10;99.90
59703;DHT22;45570;48.782;8.332;2023-03-01T11:52:21;11.40;99.90
59703;DHT22;45570;48.782;8.332;2023-03-01T11:54:58;12.20;99.90
59703;DHT22;45570;48.782;8.332;2023-03-01T11:57:43;12.00;99.90
59703;DHT22;45570;48.782;8.332;2023-03-01T12:00:26;12.00;99.90
59703;DHT22;45570;48.782;8.332;2023-03-01T12:03:30;12.20;99.90
59703;DHT22;45570;48.782;8.332;2023-03-01T12:09:09;11.70;99.90
59703;DHT22;45570;48.782;8.332;2023-03-01T12:11:49;11.20;99.90
59703;DHT22;45570;48.782;8.332;2023-03-01T12:17:45;11.40;99.90
59703;DHT22;45570;48.782;8.332;2023-03-01T12:20:22;10.70;99.90
59703;DHT22;45570;48.782;8.332;2023-03-01T12:23:12;10.80;99.90
59703;DHT22;45570;48.782;8.332;2023-03-01T12:25:49;11.10;99.90
59703;DHT22;45570;48.782;8.332;2023-03-01T12:28:42;11.80;99.90
59703;DHT22;45570;48.782;8.332;2023-03-01T12:31:34;12.00;99.90
59703;DHT22;45570;48.782;8.332;2023-03-01T12:34:15;13.00;99.90
59703;DHT22;45570;48.782;8.332;2023-03-01T12:36:59;12.60;99.90
59703;DHT22;45570;48.782;8.332;2023-03-01T12:39:40;12.80;99.90
59703;DHT22;45570;48.782;8.332;2023-03-01T12:42:17;13.10;99.90
59703;DHT22;45570;48.782;8.332;2023-03-01T12:45:02;12.70;99.60
59703;DHT22;45570;48.782;8.332;2023-03-01T12:47:41;13.10;99.90
59703;DHT22;45570;48.782;8.332;2023-03-01T12:50:17;12.60;98.60
59703;DHT22;45570;48.782;8.332;2023-03-01T12:52:50;12.60;99.60
59703;DHT22;45570;48.782;8.332;2023-03-01T12:55:27;12.80;99.90
59703;DHT22;45570;48.782;8.332;2023-03-01T12:58:03;12.40;99.90
59703;DHT22;45570;48.782;8.332;2023-03-01T13:00:41;12.40;99.90
59703;DHT22;45570;48.782;8.332;2023-03-01T13:03:19;11.80;98.60
59703;DHT22;45570;48.782;8.332;2023-03-01T13:06:00;11.50;99.90
59703;DHT22;45570;48.782;8.332;2023-03-01T13:08:38;11.50;99.60
59703;DHT22;45570;48.782;8.332;2023-03-01T13:11:16;12.10;99.90
59703;DHT22;45570;48.782;8.332;2023-03-01T13:13:46;12.30;99.90
59703;DHT22;45570;48.782;8.332;2023-03-01T13:16:22;12.30;99.70
59703;DHT22;45570;48.782;8.332;2023-03-01T13:19:10;12.40;98.20
59703;DHT22;45570;48.782;8.332;2023-03-01T13:21:40;12.80;99.90
59703;DHT22;45570;48.782;8.332;2023-03-01T13:24:27;11.70;96.20
59703;DHT22;45570;48.782;8.332;2023-03-01T13:27:11;12.00;99.90
59703;DHT22;45570;48.782;8.332;2023-03-01T13:29:48;11.60;98.60
59703;DHT22;45570;48.782;8.332;2023-03-01T13:32:22;11.90;99.90
59703;DHT22;45570;48.782;8.332;2023-03-01T13:38:38;12.00;98.20
59703;DHT22;45570;48.782;8.332;2023-03-01T13:41:09;12.40;99.10
59703;DHT22;45570;48.782;8.332;2023-03-01T13:43:38;11.80;97.80
59703;DHT22;45570;48.782;8.332;2023-03-01T13:46:11;12.20;99.90
59703;DHT22;45570;48.782;8.332;2023-03-01T13:48:43;11.70;98.80
59703;DHT22;45570;48.782;8.332;2023-03-01T13:51:12;11.30;99.00
59703;DHT22;45570;48.782;8.332;2023-03-01T13:53:44;10.60;99.20
59703;DHT22;45570;48.782;8.332;2023-03-01T13:56:19;10.70;99.90
59703;DHT22;45570;48.782;8.332;2023-03-01T13:58:51;10.80;99.90
59703;DHT22;45570;48.782;8.332;2023-03-01T14:01:26;10.80;99.90
59703;DHT22;45570;48.782;8.332;2023-03-01T14:03:58;10.80;99.90
59703;DHT22;45570;48.782;8.332;2023-03-01T14:06:29;11.00;99.90
59703;DHT22;45570;48.782;8.332;2023-03-01T14:09:08;10.80;99.90
59703;DHT22;45570;48.782;8.332;2023-03-01T14:12:06;10.60;99.90
59703;DHT22;45570;48.782;8.332;2023-03-01T14:14:53;10.50;99.90
59703;DHT22;45570;48.782;8.332;2023-03-01T14:20:18;9.90;99.90
59703;DHT22;45570;48.782;8.332;2023-03-01T14:22:49;9.70;99.90
59703;DHT22;45570;48.782;8.332;2023-03-01T14:25:22;10.00;99.90
59703;DHT22;45570;48.782;8.332;2023-03-01T14:27:56;9.70;99.90
59703;DHT22;45570;48.782;8.332;2023-03-01T14:30:27;9.50;99.90
59703;DHT22;45570;48.782;8.332;2023-03-01T14:33:00;9.40;99.90
59703;DHT22;45570;48.782;8.332;2023-03-01T14:35:30;9.10;99.90
59703;DHT22;45570;48.782;8.332;2023-03-01T14:37:59;9.20;99.90
59703;DHT22;45570;48.782;8.332;2023-03-01T14:40:29;9.00;99.90
59703;DHT22;45570;48.782;8.332;2023-03-01T14:43:02;9.40;99.90
59703;DHT22;45570;48.782;8.332;2023-03-01T14:45:37;9.50;99.90
59703;DHT22;45570;48.782;8.332;2023-03-01T14:48:07;9.60;99.90
59703;DHT22;45570;48.782;8.332;2023-03-01T14:50:40;9.20;99.90
59703;DHT22;45570;48.782;8.332;2023-03-01T14:53:16;9.00;99.90
59703;DHT22;45570;48.782;8.332;2023-03-01T14:55:47;9.10;99.90
59703;DHT22;45570;48.782;8.332;2023-03-01T14:58:20;9.10;99.90
59703;DHT22;45570;48.782;8.332;2023-03-01T15:00:51;9.40;99.90
59703;DHT22;45570;48.782;8.332;2023-03-01T15:03:26;9.30;99.90
59703;DHT22;45570;48.782;8.332;2023-03-01T15:05:56;9.70;99.90
59703;DHT22;45570;48.782;8.332;2023-03-01T15:08:25;9.80;99.90
59703;DHT22;45570;48.782;8.332;2023-03-01T15:11:02;10.00;99.90
59703;DHT22;45570;48.782;8.332;2023-03-01T15:13:36;10.70;99.90
59703;DHT22;45570;48.782;8.332;2023-03-01T15:16:09;11.10;99.90
59703;DHT22;45570;48.782;8.332;2023-03-01T15:18:44;10.60;99.90
59703;DHT22;45570;48.782;8.332;2023-03-01T15:21:19;10.20;99.90
59703;DHT22;45570;48.782;8.332;2023-03-01T15:23:52;9.60;99.90
59703;DHT22;45570;48.782;8.332;2023-03-01T15:26:26;9.60;99.90
59703;DHT22;45570;48.782;8.332;2023-03-01T15:28:59;9.60;99.90
59703;DHT22;45570;48.782;8.332;2023-03-01T15:31:37;9.00;99.90
59703;DHT22;45570;48.782;8.332;2023-03-01T15:34:19;9.10;99.90
59703;DHT22;45570;48.782;8.332;2023-03-01T15:36:51;9.00;99.90
59703;DHT22;45570;48.782;8.332;2023-03-01T15:39:42;9.20;99.90
59703;DHT22;45570;48.782;8.332;2023-03-01T15:42:12;8.90;99.90
59703;DHT22;45570;48.782;8.332;2023-03-01T15:44:45;9.10;99.90
59703;DHT22;45570;48.782;8.332;2023-03-01T15:47:25;8.90;99.90
59703;DHT22;45570;48.782;8.332;2023-03-01T15:49:55;8.50;99.90
59703;DHT22;45570;48.782;8.332;2023-03-01T15:52:26;8.40;99.90
59703;DHT22;45570;48.782;8.332;2023-03-01T15:54:58;8.10;99.90
59703;DHT22;45570;48.782;8.332;2023-03-01T15:57:28;7.80;99.90
59703;DHT22;45570;48.782;8.332;2023-03-01T15:59:58;7.60;99.90
59703;DHT22;45570;48.782;8.332;2023-03-01T16:02:26;7.40;99.90
59703;DHT22;45570;48.782;8.332;2023-03-01T16:04:56;7.40;99.90
59703;DHT22;45570;48.782;8.332;2023-03-01T16:07:25;7.30;99.90
59703;DHT22;45570;48.782;8.332;2023-03-01T16:09:55;7.20;99.90
59703;DHT22;45570;48.782;8.332;2023-03-01T16:12:23;7.20;99.90
59703;DHT22;45570;48.782;8.332;2023-03-01T16:14:52;7.10;99.90
59703;DHT22;45570;48.782;8.332;2023-03-01T16:17:22;7.00;99.90
59703;DHT22;45570;48.782;8.332;2023-03-01T16:19:51;6.90;99.90